Time;durP1;ratioP1;P1;durP2;ratioP2;P2;SDS_P1;SDS_P2;PMS_P1;PMS_P2;Temp;Humidity;BMP_temperature;BMP_pressure;BME280_temperature;BME280_humidity;BME280_pressure;Samples;Min_cycle;Max_cycle;Signal;HPM_P1;HPM_P2
2023/05/21 00:00:34;;;;;;;18.67;12.90;;;16.30;74.30;;;15.63;59.88;100720.41;5064154;28;20123;-85
2023/05/21 00:03:01;;;;;;;20.02;12.73;;;16.20;74.20;;;15.63;59.89;100706.97;5069947;28;20077;-84
2023/05/21 00:05:29;;;;;;;17.70;12.70;;;16.20;74.30;;;15.61;59.92;100709.06;5062195;28;20041;-83
2023/05/21 00:07:57;;;;;;;19.67;12.35;;;16.20;74.10;;;15.61;59.93;100709.06;5064915;28;20052;-85
2023/05/21 00:10:24;;;;;;;22.25;12.77;;;16.20;74.10;;;15.61;60.13;100711.75;5058028;28;20572;-84
2023/05/21 00:12:51;;;;;;;20.08;12.73;;;16.20;74.40;;;15.62;59.96;100713.41;5063485;28;20505;-84
2023/05/21 00:15:19;;;;;;;17.27;12.13;;;16.20;74.40;;;15.61;59.92;100707.19;5058436;28;20154;-84
2023/05/21 00:17:46;;;;;;;19.10;13.02;;;16.20;74.30;;;15.62;60.05;100708.03;5072671;28;20080;-84
2023/05/21 00:20:15;;;;;;;17.27;12.20;;;16.20;74.50;;;15.61;59.75;100696.41;5060475;28;20037;-83
2023/05/21 00:22:43;;;;;;;19.48;12.18;;;16.20;74.30;;;15.61;59.98;100692.91;5066673;28;20504;-84
2023/05/21 00:25:11;;;;;;;18.15;11.63;;;16.20;74.50;;;15.60;60.02;100688.59;5053188;28;20588;-83
2023/05/21 00:27:39;;;;;;;16.45;11.75;;;16.20;74.50;;;15.59;60.12;100693.16;5224597;23;20072;-85
2023/05/21 00:30:07;;;;;;;19.27;12.25;;;16.20;74.70;;;15.59;60.17;100685.09;5081391;28;20064;-88
2023/05/21 00:32:35;;;;;;;16.50;11.85;;;16.20;74.70;;;15.60;60.08;100691.28;5082283;28;20944;-84
2023/05/21 00:35:03;;;;;;;25.35;12.55;;;16.20;74.80;;;15.59;60.15;100687.78;5059320;28;20049;-84
2023/05/21 00:37:33;;;;;;;15.82;11.32;;;16.20;74.60;;;15.60;60.13;100686.72;5067899;28;20154;-88
2023/05/21 00:40:03;;;;;;;15.27;11.52;;;16.20;74.60;;;15.60;60.06;100689.41;5078275;28;20522;-86
2023/05/21 00:42:31;;;;;;;16.55;11.50;;;16.20;74.50;;;15.61;59.98;100685.66;5072044;28;20098;-87
2023/05/21 00:44:58;;;;;;;18.10;12.40;;;16.20;74.50;;;15.60;59.80;100678.66;5062379;28;20044;-88
2023/05/21 00:47:28;;;;;;;17.75;11.27;;;16.20;74.60;;;15.60;60.12;100683.22;5067784;28;20689;-87
2023/05/21 00:49:55;;;;;;;16.05;11.13;;;16.20;74.70;;;15.60;59.99;100680.53;5064428;28;20048;-86
2023/05/21 00:52:25;;;;;;;21.67;11.35;;;16.20;74.70;;;15.59;59.92;100677.03;5078678;28;20086;-86
2023/05/21 00:54:53;;;;;;;14.98;11.02;;;16.20;74.50;;;15.58;59.95;100670.03;5067526;28;20055;-85
2023/05/21 00:57:25;;;;;;;15.38;10.32;;;16.20;74.50;;;15.59;60.34;100678.91;5059901;28;20560;-85
2023/05/21 00:59:54;;;;;;;14.98;10.55;;;16.20;75.20;;;15.57;60.15;100675.66;5078443;28;20138;-88
2023/05/21 01:02:22;;;;;;;19.25;10.75;;;16.20;74.70;;;15.56;59.96;100674.00;5074794;28;20537;-87
2023/05/21 01:04:51;;;;;;;16.52;10.90;;;16.20;74.70;;;15.56;60.25;100672.13;5077710;28;20067;-87
2023/05/21 01:07:18;;;;;;;14.52;10.45;;;16.20;75.00;;;15.56;60.29;100671.31;5073972;28;20040;-85
2023/05/21 01:09:45;;;;;;;17.98;10.63;;;16.20;74.90;;;15.55;60.28;100672.38;5067228;28;20052;-86
2023/05/21 01:12:13;;;;;;;16.02;10.15;;;16.20;75.10;;;15.53;60.19;100667.25;5070882;28;20142;-84
2023/05/21 01:14:43;;;;;;;16.08;10.32;;;16.20;75.10;;;15.52;60.42;100665.63;5078201;28;20044;-87
2023/05/21 01:17:11;;;;;;;16.10;10.30;;;16.20;75.00;;;15.52;60.33;100664.78;5074388;28;20051;-86
2023/05/21 01:19:39;;;;;;;16.70;10.48;;;16.10;75.00;;;15.52;60.28;100660.25;5076381;28;20068;-86
2023/05/21 01:22:08;;;;;;;16.50;10.35;;;16.10;75.10;;;15.51;60.05;100665.84;5065336;28;20064;-85
2023/05/21 01:24:37;;;;;;;15.73;9.88;;;16.10;75.00;;;15.50;60.38;100666.91;5082186;28;20048;-86
2023/05/21 01:27:06;;;;;;;15.00;9.68;;;16.10;75.20;;;15.49;60.18;100666.09;5090739;28;20063;-85
2023/05/21 01:29:33;;;;;;;13.80;9.77;;;16.10;75.20;;;15.50;60.30;100661.53;5068737;28;20048;-87
2023/05/21 01:32:13;;;;;;;13.85;9.30;;;16.10;75.00;;;15.50;60.31;100664.22;5059051;28;20047;-87
2023/05/21 01:34:59;;;;;;;15.63;10.20;;;16.10;75.10;;;15.49;60.28;100657.22;5052319;28;20151;-88
2023/05/21 01:37:34;;;;;;;13.75;9.63;;;16.10;75.20;;;15.48;60.49;100650.22;5065593;28;20077;-87
2023/05/21 01:40:11;;;;;;;14.80;9.48;;;16.10;75.10;;;15.48;60.32;100653.72;5061809;28;20633;-88
2023/05/21 01:42:43;;;;;;;15.55;9.73;;;16.10;75.20;;;15.49;60.38;100649.16;5079610;28;20049;-84
2023/05/21 01:45:11;;;;;;;14.32;9.50;;;16.10;75.20;;;15.46;60.37;100650.44;5069166;28;20650;-85
2023/05/21 01:47:40;;;;;;;13.13;9.80;;;16.10;75.20;;;15.46;60.41;100651.25;5049379;28;20505;-86
2023/05/21 01:50:10;;;;;;;12.63;8.27;;;16.10;75.20;;;15.45;60.54;100648.78;5060707;28;20098;-84
2023/05/21 01:52:38;;;;;;;13.87;9.67;;;16.10;75.20;;;15.43;60.50;100654.41;5071931;28;20527;-85
2023/05/21 01:55:07;;;;;;;13.88;8.75;;;16.10;75.20;;;15.43;60.63;100651.72;5063224;28;20123;-86
2023/05/21 01:57:35;;;;;;;14.30;8.82;;;16.10;75.50;;;15.42;60.53;100655.47;5074352;28;20080;-88
2023/05/21 02:00:04;;;;;;;13.55;8.82;;;16.10;75.30;;;15.41;60.59;100653.00;5077715;28;20048;-86
2023/05/21 02:02:42;;;;;;;12.45;8.93;;;16.10;75.20;;;15.41;60.68;100653.81;5075646;28;20233;-85
2023/05/21 02:05:10;;;;;;;14.07;9.07;;;16.10;75.50;;;15.41;60.60;100645.75;5085685;28;20040;-87
2023/05/21 02:07:39;;;;;;;12.80;8.60;;;16.10;75.40;;;15.40;60.44;100644.13;5072290;28;20052;-87
2023/05/21 02:10:08;;;;;;;12.95;8.70;;;16.10;75.40;;;15.39;60.50;100636.31;5075098;28;20131;-85
2023/05/21 02:12:36;;;;;;;10.93;8.05;;;16.00;75.40;;;15.38;60.44;100637.38;5070991;28;20104;-87
2023/05/21 02:15:04;;;;;;;14.68;8.68;;;16.00;75.30;;;15.37;60.55;100633.88;5079142;28;20045;-85
2023/05/21 02:17:32;;;;;;;12.07;8.57;;;16.00;75.50;;;15.35;60.61;100638.66;5074039;28;20446;-86
2023/05/21 02:20:09;;;;;;;13.00;8.43;;;16.00;75.50;;;15.34;60.64;100639.72;5073017;28;20109;-86
2023/05/21 02:22:38;;;;;;;13.00;8.63;;;16.00;75.40;;;15.34;60.72;100628.16;5090696;28;20043;-86
2023/05/21 02:25:08;;;;;;;15.43;8.48;;;16.00;75.50;;;15.32;61.00;100636.44;5091073;28;20032;-88
2023/05/21 02:27:36;;;;;;;13.73;8.73;;;16.00;75.90;;;15.30;60.78;100633.19;5078805;28;20290;-85
2023/05/21 02:30:07;;;;;;;10.63;7.88;;;16.00;75.80;;;15.30;61.06;100630.50;5071239;28;20051;-89
2023/05/21 02:32:34;;;;;;;14.43;8.17;;;16.00;75.80;;;15.30;60.97;100635.06;5079778;28;20068;-86
2023/05/21 02:35:04;;;;;;;11.82;8.10;;;16.00;75.70;;;15.28;60.89;100638.00;5056902;28;20040;-88
2023/05/21 02:37:33;;;;;;;12.10;8.20;;;16.00;76.00;;;15.27;61.02;100633.66;5088075;28;20040;-87
2023/05/21 02:40:02;;;;;;;13.52;8.13;;;15.90;75.90;;;15.27;61.13;100630.16;5064758;28;20463;-86
2023/05/21 02:42:31;;;;;;;13.02;8.50;;;15.90;75.90;;;15.27;61.16;100625.59;5064536;28;20047;-87
2023/05/21 02:44:59;;;;;;;12.30;8.65;;;15.90;76.10;;;15.28;60.93;100632.63;5075854;28;20570;-85
2023/05/21 02:47:26;;;;;;;10.70;7.97;;;15.90;76.00;;;15.27;60.94;100628.28;5066850;28;20040;-86
2023/05/21 02:49:54;;;;;;;13.48;8.05;;;15.90;76.00;;;15.26;60.95;100629.34;5066953;28;20116;-88
2023/05/21 02:52:22;;;;;;;12.48;8.15;;;15.90;76.00;;;15.24;61.16;100628.78;5079946;28;20073;-86
2023/05/21 02:54:50;;;;;;;14.50;8.43;;;15.90;76.00;;;15.24;61.00;100628.78;5074572;28;20412;-86
2023/05/21 02:57:17;;;;;;;13.48;8.20;;;15.90;76.00;;;15.23;60.94;100629.84;5083850;28;20044;-86
2023/05/21 02:59:46;;;;;;;12.85;7.40;;;15.90;75.90;;;15.23;61.27;100635.22;5050987;28;20100;-86
2023/05/21 03:02:13;;;;;;;12.15;8.10;;;15.90;76.20;;;15.22;61.20;100630.88;5076744;28;20051;-87
2023/05/21 03:04:45;;;;;;;12.70;7.93;;;15.90;76.00;;;15.22;61.14;100627.38;5070297;28;20098;-88
2023/05/21 03:07:13;;;;;;;10.57;8.00;;;15.90;76.00;;;15.19;61.23;100632.16;5081322;28;20048;-87
2023/05/21 03:09:41;;;;;;;10.25;7.35;;;15.90;76.20;;;15.19;61.13;100625.97;5064514;28;20144;-90
2023/05/21 03:12:09;;;;;;;12.32;7.90;;;15.90;76.20;;;15.19;61.11;100628.66;5081541;28;20136;-87
2023/05/21 03:14:37;;;;;;;13.35;8.50;;;15.90;76.20;;;15.19;61.24;100632.16;5091311;28;20047;-87
2023/05/21 03:17:06;;;;;;;10.35;8.07;;;15.90;76.30;;;15.19;61.30;100625.97;5079129;28;20060;-86
2023/05/21 03:19:34;;;;;;;12.73;7.47;;;15.90;76.30;;;15.18;61.32;100624.34;5082140;28;20044;-86
2023/05/21 03:22:04;;;;;;;11.60;7.00;;;15.90;76.20;;;15.17;61.27;100620.00;5096617;28;20479;-87
2023/05/21 03:24:35;;;;;;;11.77;8.55;;;15.90;76.30;;;15.16;61.32;100618.38;5070482;28;20072;-88
2023/05/21 03:27:05;;;;;;;12.27;7.95;;;15.90;76.20;;;15.15;61.30;100625.63;5068880;28;20057;-85
2023/05/21 03:29:33;;;;;;;11.25;7.80;;;15.80;76.40;;;15.13;61.27;100619.69;5066968;28;20056;-86
2023/05/21 03:32:02;;;;;;;12.00;8.10;;;15.80;76.40;;;15.13;61.52;100621.56;5077571;28;20503;-86
2023/05/21 03:34:33;;;;;;;12.15;7.82;;;15.80;76.40;;;15.12;61.66;100619.91;5071877;28;20051;-87
2023/05/21 03:37:00;;;;;;;13.95;7.85;;;15.80;76.70;;;15.10;61.45;100617.47;5049284;28;20052;-86
2023/05/21 03:39:28;;;;;;;12.00;7.95;;;15.70;76.60;;;15.09;61.40;100615.03;5072247;28;20048;-87
2023/05/21 03:41:56;;;;;;;10.88;8.13;;;15.80;76.60;;;15.09;61.66;100623.91;5068627;28;20052;-87
2023/05/21 03:44:33;;;;;;;11.32;7.43;;;15.80;76.70;;;15.07;61.73;100614.44;5073332;28;20344;-87
2023/05/21 03:47:13;;;;;;;11.65;8.00;;;15.70;76.70;;;15.07;61.62;100615.25;5069794;28;20130;-86
2023/05/21 03:49:41;;;;;;;9.65;7.22;;;15.70;76.80;;;15.07;61.72;100615.25;5059961;28;20044;-86
2023/05/21 03:52:09;;;;;;;11.00;8.10;;;15.70;76.70;;;15.06;61.77;100618.19;5072659;28;20042;-88
2023/05/21 03:54:36;;;;;;;11.57;7.88;;;15.70;76.90;;;15.06;61.88;100616.31;5069956;28;20852;-88
2023/05/21 03:57:07;;;;;;;9.82;7.85;;;15.70;76.80;;;15.06;61.76;100616.31;5078349;28;20584;-85
2023/05/21 03:59:35;;;;;;;10.05;7.40;;;15.70;76.90;;;15.05;61.85;100617.38;5064038;28;20052;-88
2023/05/21 04:02:03;;;;;;;12.82;7.50;;;15.70;77.10;;;15.06;61.96;100620.88;5083180;28;20044;-85
2023/05/21 04:04:32;;;;;;;11.93;7.93;;;15.70;77.20;;;15.05;61.98;100608.50;5090577;28;20103;-85
2023/05/21 04:07:03;;;;;;;11.23;8.13;;;15.70;77.00;;;15.04;62.09;100614.94;5056213;28;20094;-86
2023/05/21 04:09:30;;;;;;;11.35;7.90;;;15.70;77.10;;;15.04;62.24;100618.44;5071246;28;20165;-86
2023/05/21 04:11:58;;;;;;;10.45;7.60;;;15.70;77.00;;;15.05;62.03;100628.13;5067676;28;20052;-86
2023/05/21 04:14:25;;;;;;;12.30;7.57;;;15.70;77.10;;;15.05;62.05;100627.31;5079295;28;20145;-86
2023/05/21 04:16:53;;;;;;;12.52;7.97;;;15.70;77.20;;;15.05;62.13;100611.19;5070338;28;20047;-85
2023/05/21 04:19:21;;;;;;;13.35;8.10;;;15.70;77.30;;;15.05;62.30;100613.88;5064239;28;20102;-86
2023/05/21 04:21:49;;;;;;;11.85;8.15;;;15.70;77.40;;;15.06;62.14;100620.88;5059927;28;20044;-87
2023/05/21 04:24:18;;;;;;;11.38;8.52;;;15.70;77.40;;;15.04;62.12;100621.13;5069562;28;20088;-86
2023/05/21 04:26:54;;;;;;;11.88;8.02;;;15.70;77.40;;;15.05;62.29;100621.94;5064696;28;20047;-89
2023/05/21 04:29:22;;;;;;;11.82;7.97;;;15.70;77.40;;;15.05;62.40;100619.25;5075390;28;20565;-86
2023/05/21 04:31:50;;;;;;;12.93;8.25;;;15.70;77.40;;;15.04;62.32;100621.13;5073764;28;20055;-86
2023/05/21 04:34:17;;;;;;;14.05;8.75;;;15.70;77.40;;;15.05;62.37;100621.94;5074805;28;20063;-87
2023/05/21 04:36:45;;;;;;;11.43;8.27;;;15.70;77.60;;;15.05;62.40;100622.75;5060384;28;20036;-86
2023/05/21 04:39:14;;;;;;;10.30;7.50;;;15.70;77.50;;;15.04;62.34;100633.72;5064797;28;20048;-85
2023/05/21 04:41:43;;;;;;;13.30;8.65;;;15.70;77.70;;;15.03;62.27;100629.38;5068988;28;20051;-85
2023/05/21 04:44:13;;;;;;;10.85;7.80;;;15.70;77.60;;;15.03;62.45;100634.75;5065487;28;20508;-85
2023/05/21 04:46:41;;;;;;;14.03;9.70;;;15.70;77.60;;;15.03;62.78;100629.38;5066228;28;20040;-87
2023/05/21 04:49:09;;;;;;;12.95;8.30;;;15.70;77.90;;;15.03;62.59;100627.53;5051112;28;20386;-86
2023/05/21 04:51:37;;;;;;;12.05;7.97;;;15.70;77.90;;;15.03;62.61;100630.22;5077481;28;20068;-85
2023/05/21 04:54:04;;;;;;;13.65;8.18;;;15.70;77.70;;;15.04;62.72;100620.31;5073688;28;20041;-85
2023/05/21 04:56:31;;;;;;;13.13;8.40;;;15.70;78.20;;;15.04;62.69;100631.03;5071564;28;20050;-86
2023/05/21 04:59:00;;;;;;;11.93;8.48;;;15.70;78.00;;;15.04;62.83;100626.47;5067638;28;20048;-86
2023/05/21 05:01:28;;;;;;;11.57;8.35;;;15.70;78.10;;;15.03;62.93;100624.84;5067198;28;20051;-87
2023/05/21 05:03:55;;;;;;;12.20;8.57;;;15.70;78.40;;;15.04;62.80;100617.63;5070423;28;20048;-86
2023/05/21 05:06:24;;;;;;;12.75;8.55;;;15.70;78.30;;;15.05;63.10;100621.94;5061793;28;20472;-86
2023/05/21 05:08:52;;;;;;;12.23;9.05;;;15.70;78.30;;;15.04;62.80;100614.94;5071687;28;20055;-86
2023/05/21 05:11:21;;;;;;;12.75;8.60;;;15.70;78.40;;;15.05;63.01;100627.31;5067470;28;20636;-88
2023/05/21 05:13:48;;;;;;;13.60;9.07;;;15.70;78.40;;;15.04;63.20;100625.66;5063403;28;20129;-86
2023/05/21 05:16:23;;;;;;;13.38;10.15;;;15.70;78.60;;;15.03;63.48;100626.69;5067703;28;20048;-86
2023/05/21 05:18:51;;;;;;;13.18;9.50;;;15.60;78.80;;;15.03;63.32;100624.84;5075555;28;20051;-88
2023/05/21 05:21:19;;;;;;;14.55;9.45;;;15.70;78.90;;;15.02;63.63;100622.38;5070140;28;20508;-87
2023/05/21 05:23:46;;;;;;;13.10;9.15;;;15.60;79.00;;;15.02;63.34;100617.81;5076910;28;20047;-87
2023/05/21 05:26:13;;;;;;;14.65;9.80;;;15.60;78.90;;;15.02;63.55;100615.16;5070063;28;20667;-86
2023/05/21 05:28:41;;;;;;;14.18;9.90;;;15.70;79.20;;;14.99;63.79;100623.69;5088893;28;20043;-85
2023/05/21 05:31:08;;;;;;;15.52;9.77;;;15.60;79.20;;;14.99;63.93;100620.19;5070883;28;20071;-89
2023/05/21 05:33:37;;;;;;;14.75;9.38;;;15.60;79.40;;;14.99;64.01;100620.19;5065220;28;20048;-86
2023/05/21 05:36:05;;;;;;;16.00;9.77;;;15.60;79.50;;;15.00;64.02;100619.13;5055962;28;20097;-86
2023/05/21 05:38:33;;;;;;;15.35;9.93;;;15.60;79.50;;;15.00;64.08;100625.31;5079631;28;20039;-84
2023/05/21 05:41:01;;;;;;;13.15;9.85;;;15.60;79.60;;;14.99;63.81;100621.00;5079417;28;20052;-83
2023/05/21 05:43:28;;;;;;;13.13;10.38;;;15.60;79.50;;;15.00;63.99;100611.88;5075452;28;20044;-81
2023/05/21 05:45:56;;;;;;;15.85;10.55;;;15.60;79.60;;;15.01;64.01;100612.72;5058835;28;20517;-87
2023/05/21 05:48:24;;;;;;;14.05;10.27;;;15.60;79.60;;;15.04;64.39;100612.25;5056562;28;20413;-83
2023/05/21 05:50:53;;;;;;;13.32;9.70;;;15.70;79.80;;;15.07;63.99;100619.81;5068073;28;20070;-85
2023/05/21 05:53:21;;;;;;;14.63;10.00;;;15.70;79.80;;;15.07;64.03;100609.88;5068801;28;20664;-84
2023/05/21 05:55:48;;;;;;;14.98;9.90;;;15.70;79.90;;;15.08;64.02;100608.00;5072019;28;20052;-83
2023/05/21 05:58:16;;;;;;;14.80;10.65;;;15.70;79.80;;;15.08;64.16;100616.06;5082224;28;20464;-83
2023/05/21 06:00:54;;;;;;;14.88;9.77;;;15.70;80.00;;;15.11;64.23;100613.72;5084961;28;20048;-85
2023/05/21 06:03:21;;;;;;;12.75;9.63;;;15.70;80.00;;;15.12;64.16;100609.16;5067495;28;20140;-86
2023/05/21 06:05:48;;;;;;;12.32;9.40;;;15.80;79.90;;;15.14;64.22;100610.56;5069625;28;20518;-87
2023/05/21 06:08:17;;;;;;;14.32;9.75;;;15.80;79.90;;;15.16;64.01;100605.75;5069964;28;20056;-87
2023/05/21 06:10:46;;;;;;;13.77;10.05;;;15.80;79.70;;;15.16;64.23;100602.28;5071235;28;20105;-88
2023/05/21 06:13:13;;;;;;;11.98;9.40;;;15.80;79.80;;;15.17;64.06;100607.38;5081004;28;20067;-85
2023/05/21 06:15:41;;;;;;;14.00;9.73;;;15.80;79.80;;;15.19;64.32;100601.81;5090103;28;20598;-85
2023/05/21 06:18:10;;;;;;;15.25;9.73;;;15.80;80.00;;;15.22;64.10;100600.50;5061849;28;20421;-85
2023/05/21 06:20:37;;;;;;;15.25;10.27;;;15.90;79.90;;;15.24;64.14;100604.59;5083009;28;20043;-86
2023/05/21 06:23:06;;;;;;;14.75;9.80;;;15.90;79.90;;;15.22;64.15;100600.50;5073982;28;20508;-84
2023/05/21 06:25:34;;;;;;;12.82;9.52;;;15.90;80.00;;;15.20;64.21;100603.44;5067300;28;20587;-88
2023/05/21 06:28:02;;;;;;;14.73;9.82;;;15.90;80.10;;;15.24;64.46;100609.97;5091573;23;20096;-79
2023/05/21 06:30:30;;;;;;;13.00;10.13;;;15.90;80.20;;;15.25;64.34;100595.47;5015863;28;20609;-80
2023/05/21 06:32:59;;;;;;;15.05;9.90;;;15.90;80.10;;;15.29;64.60;100599.31;5023276;28;20046;-80
2023/05/21 06:35:27;;;;;;;18.35;10.45;;;16.00;80.50;;;15.32;64.48;100600.69;5024662;28;20129;-79
2023/05/21 06:37:54;;;;;;;13.85;10.10;;;16.00;80.20;;;15.33;64.40;100592.41;5030164;28;20107;-80
2023/05/21 06:40:22;;;;;;;16.67;10.05;;;16.00;80.10;;;15.36;64.31;100591.09;5044670;28;20458;-81
2023/05/21 06:42:55;;;;;;;15.43;10.25;;;16.00;79.90;;;15.40;64.29;100586.88;5036131;28;20063;-79
2023/05/21 06:45:54;;;;;;;14.38;10.43;;;16.10;80.00;;;15.42;64.25;100585.59;5043452;28;20057;-79
2023/05/21 06:48:37;;;;;;;14.10;10.38;;;16.10;79.90;;;15.44;64.34;100585.34;5054988;28;20045;-81
2023/05/21 06:51:04;;;;;;;15.60;10.50;;;16.10;80.00;;;15.46;64.31;100583.22;5048475;28;20053;-79
2023/05/21 06:53:31;;;;;;;14.07;10.75;;;16.10;80.00;;;15.51;64.33;100583.31;5049419;28;20077;-78
2023/05/21 06:55:59;;;;;;;15.70;10.80;;;16.20;80.10;;;15.55;64.08;100578.28;5056062;28;20098;-79
2023/05/21 06:58:44;;;;;;;13.00;10.43;;;16.20;79.80;;;15.54;64.10;100577.47;5043634;28;20049;-79
2023/05/21 07:01:11;;;;;;;15.65;10.60;;;16.20;79.80;;;15.57;64.12;100579.69;5039017;28;20136;-82
2023/05/21 07:03:39;;;;;;;15.30;10.88;;;16.20;79.80;;;15.62;64.31;100573.59;5051776;28;20052;-80
2023/05/21 07:06:07;;;;;;;15.93;11.13;;;16.30;80.10;;;15.69;64.04;100582.34;5046144;28;20406;-80
2023/05/21 07:08:34;;;;;;;16.00;11.00;;;16.30;80.00;;;15.74;64.20;100587.00;5047995;28;20040;-81
2023/05/21 07:11:02;;;;;;;17.17;12.25;;;16.40;80.00;;;15.77;64.14;100576.56;5048842;28;20055;-80
2023/05/21 07:13:30;;;;;;;16.65;11.00;;;16.40;79.90;;;15.81;64.04;100585.78;5046575;28;20508;-80
2023/05/21 07:15:59;;;;;;;15.60;11.60;;;16.50;79.90;;;15.89;63.88;100576.50;5049287;28;20408;-80
2023/05/21 07:18:27;;;;;;;15.48;11.02;;;16.50;79.80;;;15.94;64.05;100572.00;5049471;28;20055;-81
2023/05/21 07:20:55;;;;;;;19.92;11.68;;;16.60;79.80;;;16.01;63.82;100577.25;5044074;28;20056;-82
2023/05/21 07:23:23;;;;;;;15.82;11.25;;;16.70;79.50;;;16.10;63.72;100569.56;5056685;28;20412;-86
2023/05/21 07:25:51;;;;;;;17.23;11.63;;;16.70;79.40;;;16.23;63.61;100569.22;5065092;28;20044;-81
2023/05/21 07:28:19;;;;;;;15.20;11.07;;;16.80;79.40;;;16.35;64.25;100578.03;5064236;28;20052;-83
2023/05/21 07:30:46;;;;;;;17.83;11.70;;;17.00;79.70;;;16.51;65.25;100573.69;5059248;28;20076;-82
2023/05/21 07:33:21;;;;;;;14.93;10.57;;;17.10;81.20;;;16.67;64.60;100569.31;5044011;28;20065;-84
2023/05/21 07:35:49;;;;;;;;;;;17.30;80.00;;;16.76;63.48;100575.13;5040355;28;20106;-83
2023/05/21 07:38:17;;;;;;;16.52;11.55;;;17.40;79.00;;;16.79;62.16;100575.44;5040385;28;19925;-84
2023/05/21 07:40:44;;;;;;;24.73;12.00;;;17.50;77.70;;;16.79;62.10;100569.22;5051944;28;20052;-85
2023/05/21 07:43:12;;;;;;;20.77;12.10;;;17.50;77.80;;;16.81;62.14;100569.81;5080108;28;20045;-82
2023/05/21 07:45:40;;;;;;;17.33;10.98;;;17.50;77.70;;;16.84;61.93;100569.31;5068910;28;20303;-81
2023/05/21 07:48:08;;;;;;;17.90;11.98;;;17.50;77.60;;;16.85;62.37;100560.97;5059301;28;20044;-79
2023/05/21 07:50:41;;;;;;;17.52;11.45;;;17.60;77.50;;;16.88;62.15;100563.16;5047271;28;20059;-84
2023/05/21 07:53:08;;;;;;;16.10;12.00;;;17.60;77.60;;;16.94;62.16;100569.44;5046444;28;20090;-83
2023/05/21 07:55:35;;;;;;;16.92;11.38;;;17.70;77.40;;;16.98;61.22;100559.75;5047006;28;20095;-89
2023/05/21 07:58:03;;;;;;;18.85;12.63;;;17.70;76.70;;;16.95;61.10;100563.78;5028729;28;20132;-86
2023/05/21 08:00:45;;;;;;;17.63;11.98;;;17.70;76.40;;;16.94;61.01;100569.44;5039800;28;20040;-88
2023/05/21 08:03:15;;;;;;;17.48;12.65;;;17.70;76.40;;;16.98;61.49;100575.94;5053904;28;20044;-87
2023/05/21 08:05:47;;;;;;;16.08;12.13;;;17.70;76.80;;;17.03;61.52;100569.78;5054178;28;20409;-88
2023/05/21 08:08:16;;;;;;;19.80;12.50;;;17.70;76.70;;;17.07;61.50;100570.91;5047465;28;20056;-87
2023/05/21 08:10:46;;;;;;;16.67;12.68;;;17.80;76.60;;;17.11;61.54;100574.75;5056028;28;20288;-88
2023/05/21 08:13:15;;;;;;;18.02;13.10;;;17.80;76.80;;;17.14;61.31;100576.94;5062572;28;20052;-88
2023/05/21 08:15:42;;;;;;;18.15;12.02;;;17.80;76.40;;;17.18;61.10;100581.59;5056004;28;20096;-87
2023/05/21 08:18:10;;;;;;;21.92;13.73;;;17.80;76.20;;;17.20;61.25;100574.06;5065302;28;20052;-89
2023/05/21 08:20:37;;;;;;;20.52;13.40;;;17.90;76.50;;;17.22;61.32;100587.25;5044187;28;20511;-88
2023/05/21 08:23:06;;;;;;;18.77;13.30;;;17.90;76.40;;;17.25;60.71;100592.16;5055382;28;20041;-89
2023/05/21 08:25:40;;;;;;;16.25;12.73;;;18.00;75.90;;;17.25;61.12;100598.38;5052998;28;20049;-90
2023/05/21 08:28:07;;;;;;;18.88;13.20;;;18.00;76.20;;;17.31;60.71;100601.94;5059115;28;20044;-82
2023/05/21 08:30:35;;;;;;;17.27;12.95;;;18.00;76.00;;;17.35;61.00;100603.06;5059597;28;20458;-82
2023/05/21 08:33:03;;;;;;;19.40;14.07;;;18.10;76.20;;;17.43;61.11;100610.72;5044632;28;20051;-82
2023/05/21 08:35:33;;;;;;;16.20;12.32;;;18.10;76.10;;;17.48;60.53;100618.03;5047814;28;20103;-82
2023/05/21 08:38:13;;;;;;;20.00;14.02;;;18.20;75.70;;;17.52;60.22;100613.78;5053775;28;20052;-82
2023/05/21 08:40:55;;;;;;;16.85;12.75;;;18.20;75.40;;;17.54;60.33;100605.44;5061575;28;20044;-82
2023/05/21 08:43:22;;;;;;;19.27;14.38;;;18.20;75.40;;;17.55;60.70;100605.16;5049000;28;20053;-82
2023/05/21 08:45:54;;;;;;;19.00;13.63;;;18.30;75.80;;;17.55;60.33;100615.13;5041007;28;20048;-83
2023/05/21 08:48:24;;;;;;;18.08;13.77;;;18.30;75.40;;;17.58;60.24;100603.84;5054640;28;20103;-83
2023/05/21 08:50:53;;;;;;;19.13;14.95;;;18.30;75.30;;;17.63;60.17;100612.81;5045761;28;20048;-82
2023/05/21 08:53:27;;;;;;;19.50;14.23;;;18.30;75.40;;;17.71;60.69;100609.66;5045244;28;20045;-82
2023/05/21 08:55:56;;;;;;;16.60;13.85;;;18.40;76.00;;;17.73;60.07;100604.03;5058616;28;20060;-82
2023/05/21 08:58:25;;;;;;;21.63;14.90;;;18.40;75.20;;;17.74;60.54;100592.16;5054713;28;20041;-83
2023/05/21 09:00:55;;;;;;;19.33;13.60;;;18.40;75.60;;;17.78;60.58;100595.97;5058123;28;20041;-83
2023/05/21 09:03:28;;;;;;;17.73;13.35;;;18.50;75.80;;;17.82;61.24;100591.72;5048502;28;20060;-83
2023/05/21 09:05:55;;;;;;;20.30;13.80;;;18.50;76.40;;;17.90;60.27;100585.81;5046493;28;20051;-83
2023/05/21 09:08:31;;;;;;;24.00;15.25;;;18.60;75.20;;;17.94;60.44;100580.72;5029222;28;20466;-81
2023/05/21 09:11:02;;;;;;;21.65;15.55;;;18.70;75.50;;;18.00;60.25;100587.78;5043604;28;20041;-83
2023/05/21 09:13:37;;;;;;;20.08;15.40;;;18.70;75.20;;;18.06;60.21;100580.59;5038512;28;20057;-83
2023/05/21 09:16:10;;;;;;;18.83;14.70;;;18.80;75.20;;;18.10;59.87;100579.78;5041681;28;20045;-82
2023/05/21 09:18:38;;;;;;;19.55;14.45;;;18.80;74.60;;;18.14;59.62;100577.38;5049554;28;20052;-82
2023/05/21 09:21:28;;;;;;;20.15;15.07;;;18.80;74.40;;;18.18;59.91;100578.50;5045174;28;20139;-82
2023/05/21 09:24:01;;;;;;;21.88;15.98;;;18.90;74.70;;;18.18;59.28;100571.22;5051908;28;20047;-82
2023/05/21 09:26:28;;;;;;;19.50;15.20;;;18.90;74.10;;;18.18;59.41;100573.91;5054158;28;20428;-83
2023/05/21 09:29:00;;;;;;;19.00;15.68;;;18.90;74.60;;;18.23;60.24;100559.63;5049968;28;20110;-82
2023/05/21 09:31:29;;;;;;;20.80;14.57;;;19.00;75.00;;;18.31;62.52;100558.34;5045580;28;20054;-84
2023/05/21 09:33:56;;;;;;;24.63;15.48;;;19.00;77.40;;;18.40;60.75;100554.91;5050583;28;20041;-83
2023/05/21 09:36:28;;;;;;;20.90;15.63;;;19.20;75.60;;;18.45;59.62;100559.53;5049194;28;20040;-83
2023/05/21 09:38:57;;;;;;;20.33;14.63;;;19.20;74.30;;;18.44;59.05;100547.88;5042572;28;20056;-82
2023/05/21 09:41:34;;;;;;;22.10;16.08;;;19.10;74.10;;;18.43;59.42;100553.56;5043102;28;20051;-83
2023/05/21 09:44:02;;;;;;;20.33;16.13;;;19.10;74.10;;;18.43;60.25;100545.44;5045423;28;20063;-82
2023/05/21 09:46:39;;;;;;;20.95;16.50;;;19.20;75.30;;;18.45;60.12;100543.31;5042164;28;20090;-82
2023/05/21 09:49:07;;;;;;;20.35;16.60;;;19.20;74.90;;;18.50;59.43;100543.34;5045236;28;20087;-82
2023/05/21 09:51:38;;;;;;;23.00;17.10;;;19.20;74.10;;;18.58;59.46;100542.00;5040296;28;20098;-82
2023/05/21 09:54:05;;;;;;;22.25;16.85;;;19.30;74.10;;;18.65;59.30;100548.81;5043366;28;20049;-82
2023/05/21 09:56:35;;;;;;;20.77;16.70;;;19.40;73.80;;;18.70;59.56;100539.97;5042890;28;20047;-83
2023/05/21 09:59:04;;;;;;;20.08;14.98;;;19.40;74.10;;;18.74;59.36;100539.16;5044366;28;20529;-78
2023/05/21 10:01:32;;;;;;;25.20;16.35;;;19.50;74.30;;;18.81;58.91;100544.31;5042747;28;20040;-81
2023/05/21 10:04:06;;;;;;;17.92;10.50;;;19.60;73.80;;;18.86;57.06;100533.53;5048915;28;20634;-88
2023/05/21 10:06:42;;;;;;;25.40;17.08;;;19.60;71.70;;;18.88;58.79;100528.66;5042871;28;20047;-88
2023/05/21 10:09:11;;;;;;;23.02;15.27;;;19.60;73.40;;;18.91;57.34;100532.75;5044117;28;20500;-84
2023/05/21 10:11:43;;;;;;;25.63;16.08;;;19.60;72.00;;;19.01;59.54;100530.06;5043648;28;20712;-86